Time;durP1;ratioP1;P1;durP2;ratioP2;P2;SDS_P1;SDS_P2;PMS_P1;PMS_P2;Temp;Humidity;BMP_temperature;BMP_pressure;BME280_temperature;BME280_humidity;BME280_pressure;Samples;Min_cycle;Max_cycle;Signal;HPM_P1;HPM_P2
2022/05/30 00:01:15;;;;;;;6.70;1.98;;;10.00;99.90;;;;;;5098985;28;20043;-67
2022/05/30 00:03:41;;;;;;;8.32;2.30;;;10.00;99.90;;;;;;5101846;28;20137;-68
2022/05/30 00:06:09;;;;;;;10.70;2.72;;;10.00;99.90;;;;;;5097387;28;20130;-68
2022/05/30 00:08:35;;;;;;;9.32;2.50;;;10.00;99.90;;;;;;5102328;28;21006;-68
2022/05/30 00:11:03;;;;;;;8.20;2.00;;;10.00;99.90;;;;;;5096365;28;20570;-68
2022/05/30 00:13:28;;;;;;;13.77;2.55;;;10.00;99.90;;;;;;5102074;28;20136;-67
2022/05/30 00:15:54;;;;;;;8.50;2.45;;;10.00;99.90;;;;;;5100043;28;20500;-68
2022/05/30 00:18:19;;;;;;;9.43;2.42;;;10.00;99.90;;;;;;5104059;28;20044;-68
2022/05/30 00:20:45;;;;;;;8.55;2.38;;;10.00;99.90;;;;;;5089436;28;20116;-68
2022/05/30 00:23:12;;;;;;;7.78;2.25;;;9.90;99.90;;;;;;5087506;28;20406;-68
2022/05/30 00:25:40;;;;;;;8.50;2.60;;;10.00;99.90;;;;;;5091924;28;20042;-68
2022/05/30 00:28:06;;;;;;;9.45;2.20;;;10.00;99.90;;;;;;5088798;28;20044;-68
2022/05/30 00:30:31;;;;;;;7.60;2.03;;;10.00;99.90;;;;;;5089590;28;20031;-68
2022/05/30 00:32:57;;;;;;;10.38;2.63;;;9.90;99.90;;;;;;5097844;28;20674;-68
2022/05/30 00:35:23;;;;;;;7.18;2.03;;;9.90;99.90;;;;;;5095354;28;20032;-68
2022/05/30 00:37:48;;;;;;;8.27;2.08;;;10.00;99.90;;;;;;5097886;28;20392;-68
2022/05/30 00:40:14;;;;;;;8.98;2.50;;;9.90;99.90;;;;;;5091484;28;20047;-68
2022/05/30 00:42:40;;;;;;;7.75;2.20;;;9.90;99.90;;;;;;5106963;28;20074;-68
2022/05/30 00:45:06;;;;;;;8.38;2.28;;;9.90;99.90;;;;;;5100234;28;20086;-68
2022/05/30 00:47:32;;;;;;;7.68;2.15;;;10.00;99.90;;;;;;5078682;28;20040;-68
2022/05/30 00:49:57;;;;;;;9.88;2.08;;;10.00;99.90;;;;;;5091748;28;20032;-68
2022/05/30 00:52:31;;;;;;;5.90;1.65;;;10.00;99.90;;;;;;5091722;28;20548;-68
2022/05/30 00:55:03;;;;;;;8.10;1.75;;;10.00;99.90;;;;;;5092826;28;20044;-68
2022/05/30 00:57:31;;;;;;;6.03;1.67;;;10.00;99.90;;;;;;5110541;28;20039;-68
2022/05/30 00:59:59;;;;;;;7.90;1.67;;;10.00;99.90;;;;;;5104093;28;20075;-68
2022/05/30 01:02:32;;;;;;;6.35;1.65;;;10.00;99.90;;;;;;5092459;28;20128;-68
2022/05/30 01:07:44;;;;;;;5.57;1.27;;;10.00;99.90;;;;;;5106676;28;20043;-68
2022/05/30 01:10:14;;;;;;;6.03;1.52;;;9.90;99.90;;;;;;5104724;28;20036;-68
2022/05/30 01:12:49;;;;;;;5.63;1.10;;;10.00;99.90;;;;;;5104560;28;20102;-68
2022/05/30 01:15:17;;;;;;;3.58;1.13;;;9.90;99.90;;;;;;5099175;28;20046;-68
2022/05/30 01:17:58;;;;;;;4.97;1.23;;;9.90;99.90;;;;;;5097325;28;20048;-68
2022/05/30 01:20:56;;;;;;;5.55;1.38;;;10.00;99.90;;;;;;5088943;28;20047;-68
2022/05/30 01:23:50;;;;;;;6.80;1.30;;;9.90;99.90;;;;;;5083411;28;20054;-68
2022/05/30 01:26:42;;;;;;;4.65;1.20;;;9.90;99.90;;;;;;5069378;27;20059;-68
2022/05/30 01:29:23;;;;;;;5.30;1.52;;;9.80;99.90;;;;;;5095201;28;20169;-68
2022/05/30 01:31:48;;;;;;;3.60;1.15;;;9.80;99.90;;;;;;5090712;28;20086;-68
2022/05/30 01:34:14;;;;;;;5.00;1.10;;;9.80;99.90;;;;;;5092020;28;20437;-68
2022/05/30 01:36:40;;;;;;;4.15;1.17;;;9.70;99.90;;;;;;5100020;28;20100;-68
2022/05/30 01:39:06;;;;;;;4.15;1.10;;;9.60;99.90;;;;;;5100178;28;20039;-68
2022/05/30 01:41:32;;;;;;;4.47;1.30;;;9.60;99.90;;;;;;5094844;28;20032;-68
2022/05/30 01:43:58;;;;;;;3.95;1.10;;;9.50;99.90;;;;;;5097018;28;20065;-68
2022/05/30 01:46:26;;;;;;;7.18;1.65;;;9.40;99.90;;;;;;5090179;28;20040;-68
2022/05/30 01:48:52;;;;;;;4.32;1.15;;;9.40;99.90;;;;;;5089533;28;20501;-68
2022/05/30 01:51:20;;;;;;;3.92;1.17;;;9.30;99.90;;;;;;5087787;28;20032;-68
2022/05/30 01:53:46;;;;;;;4.22;1.30;;;9.20;99.90;;;;;;5090500;28;20466;-68
2022/05/30 01:56:13;;;;;;;4.35;1.10;;;9.20;99.90;;;;;;5099903;28;20083;-68
2022/05/30 01:58:39;;;;;;;4.85;1.33;;;9.20;99.90;;;;;;5099730;27;20505;-68
2022/05/30 02:01:24;;;;;;;5.30;1.50;;;9.10;99.90;;;;;;5091434;28;20032;-68
2022/05/30 02:03:52;;;;;;;6.53;1.52;;;9.10;99.90;;;;;;5088364;28;20097;-68
2022/05/30 02:06:19;;;;;;;5.63;1.50;;;9.10;99.90;;;;;;5094176;28;20055;-68
2022/05/30 02:08:47;;;;;;;4.43;1.40;;;9.10;99.90;;;;;;5108762;27;20082;-68
2022/05/30 02:11:14;;;;;;;7.53;1.50;;;9.10;99.90;;;;;;5094203;28;20473;-68
2022/05/30 02:13:40;;;;;;;5.27;1.60;;;9.10;99.90;;;;;;5105547;28;20459;-68
2022/05/30 02:18:52;;;;;;;4.78;1.52;;;9.10;99.90;;;;;;5092531;28;20066;-68
2022/05/30 02:21:18;;;;;;;5.10;1.60;;;9.10;99.90;;;;;;5088089;28;20404;-68
2022/05/30 02:23:44;;;;;;;6.40;1.60;;;9.10;99.90;;;;;;5086643;28;20174;-68
2022/05/30 02:26:10;;;;;;;4.00;1.27;;;9.10;99.90;;;;;;5098543;28;20048;-68
2022/05/30 02:28:36;;;;;;;4.35;1.40;;;9.10;99.90;;;;;;5108641;28;20054;-68
2022/05/30 02:31:02;;;;;;;3.45;1.50;;;9.10;99.90;;;;;;5095376;28;20945;-68
2022/05/30 02:38:56;;;;;;;4.30;1.60;;;8.90;99.90;;;;;;5090733;28;20044;-68
2022/05/30 02:41:21;;;;;;;5.43;1.60;;;8.90;99.90;;;;;;5089258;28;20047;-68
2022/05/30 02:43:47;;;;;;;2.92;1.60;;;8.90;99.90;;;;;;5087848;28;20762;-68
2022/05/30 02:46:13;;;;;;;7.22;1.90;;;8.80;99.90;;;;;;5099049;28;20127;-68
2022/05/30 02:48:39;;;;;;;4.88;1.90;;;8.80;99.90;;;;;;5091982;28;20051;-68
2022/05/30 02:51:05;;;;;;;4.80;1.83;;;8.80;99.90;;;;;;5104656;28;20035;-68
2022/05/30 02:53:30;;;;;;;5.75;1.92;;;8.80;99.90;;;;;;5109131;28;20096;-68
2022/05/30 02:55:56;;;;;;;6.68;1.88;;;8.70;99.90;;;;;;5109959;28;20047;-68
2022/05/30 02:58:22;;;;;;;4.80;1.92;;;8.70;99.90;;;;;;5106591;28;20058;-68
2022/05/30 03:00:47;;;;;;;3.92;1.80;;;8.70;99.90;;;;;;5101302;28;20506;-68
2022/05/30 03:03:13;;;;;;;4.43;1.75;;;8.70;99.90;;;;;;5110149;28;20040;-68
2022/05/30 03:05:39;;;;;;;5.32;1.92;;;8.70;99.90;;;;;;5095995;28;20684;-68
2022/05/30 03:08:06;;;;;;;8.32;2.40;;;8.70;99.90;;;;;;5098281;28;20054;-68
2022/05/30 03:10:31;;;;;;;9.02;2.35;;;8.70;99.90;;;;;;5090301;28;20054;-68
2022/05/30 03:12:57;;;;;;;7.43;2.15;;;8.70;99.90;;;;;;5088754;28;20691;-68
2022/05/30 03:15:22;;;;;;;7.38;2.30;;;8.70;99.90;;;;;;5100318;28;20039;-68
2022/05/30 03:17:51;;;;;;;6.50;2.50;;;8.70;99.90;;;;;;5102404;28;20048;-68
2022/05/30 03:20:17;;;;;;;9.38;3.20;;;8.70;99.90;;;;;;5108483;28;20779;-68
2022/05/30 03:22:43;;;;;;;8.00;2.90;;;8.70;99.90;;;;;;5107998;28;20126;-68
2022/05/30 03:25:10;;;;;;;8.20;2.90;;;8.70;99.90;;;;;;5105925;28;20115;-68
2022/05/30 03:27:36;;;;;;;8.55;3.33;;;8.70;99.90;;;;;;5086315;28;20044;-68
2022/05/30 03:30:02;;;;;;;6.90;3.17;;;8.70;99.90;;;;;;5109819;28;20036;-68
2022/05/30 03:32:28;;;;;;;7.15;2.80;;;8.70;99.90;;;;;;5109746;28;20048;-68
2022/05/30 03:34:53;;;;;;;9.05;3.50;;;8.70;99.90;;;;;;5108304;28;20409;-68
2022/05/30 03:37:19;;;;;;;7.15;3.08;;;8.70;99.90;;;;;;5103111;28;20115;-68
2022/05/30 03:39:45;;;;;;;9.45;3.40;;;8.70;99.90;;;;;;5099573;28;20077;-67
2022/05/30 03:42:14;;;;;;;7.97;3.45;;;8.70;99.90;;;;;;5109192;28;20048;-68
2022/05/30 03:44:41;;;;;;;10.00;3.97;;;8.70;99.90;;;;;;5105250;28;20043;-68
2022/05/30 03:47:07;;;;;;;7.03;3.63;;;8.70;99.90;;;;;;5104680;28;20124;-68
2022/05/30 03:49:33;;;;;;;8.10;3.90;;;8.70;99.90;;;;;;5088894;28;20040;-68
2022/05/30 03:51:59;;;;;;;10.05;4.57;;;8.70;99.90;;;;;;5087564;28;20075;-69
2022/05/30 03:54:25;;;;;;;12.15;5.25;;;8.60;99.90;;;;;;5088632;28;20063;-68
2022/05/30 03:56:51;;;;;;;8.00;4.43;;;8.60;99.90;;;;;;5097374;28;20088;-68
2022/05/30 03:59:16;;;;;;;11.23;4.50;;;8.60;99.90;;;;;;5101539;28;20094;-67
2022/05/30 04:01:42;;;;;;;7.43;4.13;;;8.60;99.90;;;;;;5106649;28;20048;-68
2022/05/30 04:04:08;;;;;;;9.40;4.82;;;8.60;99.90;;;;;;5094843;28;20042;-68
2022/05/30 04:06:34;;;;;;;8.70;4.13;;;8.60;99.90;;;;;;5109126;28;20035;-68
2022/05/30 04:08:59;;;;;;;10.32;4.03;;;8.60;99.90;;;;;;5102903;28;20032;-68
2022/05/30 04:11:25;;;;;;;10.40;4.03;;;8.60;99.90;;;;;;5109082;28;20050;-68
2022/05/30 04:13:50;;;;;;;9.40;3.90;;;8.60;99.90;;;;;;5107317;28;20043;-67
2022/05/30 04:16:16;;;;;;;7.05;3.85;;;8.70;99.90;;;;;;5096578;28;20071;-68
2022/05/30 04:18:42;;;;;;;8.07;3.85;;;8.70;99.90;;;;;;5112232;28;20097;-68
2022/05/30 04:21:10;;;;;;;12.35;4.55;;;8.70;99.90;;;;;;5111416;28;20032;-68
2022/05/30 04:23:37;;;;;;;10.65;4.20;;;8.80;99.90;;;;;;5097661;28;20044;-68
2022/05/30 04:26:07;;;;;;;8.50;4.07;;;8.80;99.90;;;;;;5103964;28;20138;-67
2022/05/30 04:28:33;;;;;;;8.30;3.90;;;8.80;99.90;;;;;;5106799;28;20320;-68
2022/05/30 04:30:58;;;;;;;9.30;3.72;;;8.80;99.90;;;;;;5109952;28;20530;-68
2022/05/30 04:33:25;;;;;;;9.32;3.92;;;8.90;99.90;;;;;;5113491;28;20043;-68
2022/05/30 04:35:51;;;;;;;7.43;3.77;;;8.90;99.90;;;;;;5113505;28;20394;-68
2022/05/30 04:38:16;;;;;;;10.75;3.50;;;8.90;99.90;;;;;;5095032;28;20054;-68
2022/05/30 04:40:42;;;;;;;9.00;3.50;;;9.00;99.90;;;;;;5102279;28;20040;-68
2022/05/30 04:43:07;;;;;;;8.27;3.88;;;9.00;99.90;;;;;;5113006;28;20051;-68
2022/05/30 04:45:33;;;;;;;8.15;3.83;;;9.00;99.90;;;;;;5110315;28;20032;-68
2022/05/30 04:48:00;;;;;;;10.73;3.72;;;9.00;99.90;;;;;;5104907;28;20050;-68
2022/05/30 04:50:26;;;;;;;7.00;3.72;;;9.10;99.90;;;;;;5109763;28;20043;-68
2022/05/30 04:52:52;;;;;;;11.15;4.10;;;9.10;99.90;;;;;;5099029;28;20039;-68
2022/05/30 04:55:18;;;;;;;8.38;4.00;;;9.20;99.90;;;;;;5112338;28;20512;-68
2022/05/30 04:57:48;;;;;;;7.57;4.13;;;9.20;99.90;;;;;;5095715;28;20040;-68
2022/05/30 05:00:19;;;;;;;8.80;4.13;;;9.20;99.90;;;;;;5088747;28;20093;-68
2022/05/30 05:02:45;;;;;;;7.43;3.58;;;9.30;99.90;;;;;;5108509;27;20044;-69
2022/05/30 05:05:11;;;;;;;9.10;4.03;;;9.30;99.90;;;;;;5102484;28;20054;-68
2022/05/30 05:08:20;;;;;;;8.40;3.70;;;9.30;99.90;;;;;;5104449;28;20046;-69
2022/05/30 05:11:05;;;;;;;8.48;3.95;;;9.30;99.90;;;;;;5102220;28;20430;-68
2022/05/30 05:13:30;;;;;;;11.15;3.90;;;9.40;99.90;;;;;;5083820;28;20108;-68
2022/05/30 05:15:57;;;;;;;5.97;3.72;;;9.40;99.90;;;;;;5094656;28;20654;-68
2022/05/30 05:18:22;;;;;;;6.25;3.63;;;9.50;99.90;;;;;;5090376;28;20173;-68
2022/05/30 05:20:48;;;;;;;8.48;4.25;;;9.50;99.90;;;;;;5093001;28;20115;-70
2022/05/30 05:23:14;;;;;;;7.10;3.97;;;9.50;99.90;;;;;;5102624;28;20036;-66
2022/05/30 05:25:40;;;;;;;10.57;4.35;;;9.60;99.90;;;;;;5091338;28;20078;-67
2022/05/30 05:28:06;;;;;;;6.80;3.95;;;9.60;99.90;;;;;;5090987;28;20078;-66
2022/05/30 05:30:32;;;;;;;10.85;4.00;;;9.60;99.90;;;;;;5090339;28;20040;-66
2022/05/30 05:32:58;;;;;;;8.98;3.70;;;9.60;99.90;;;;;;5089758;28;20044;-67
2022/05/30 05:35:23;;;;;;;8.98;3.67;;;9.70;99.90;;;;;;5092778;28;20061;-67
2022/05/30 05:37:49;;;;;;;6.90;3.70;;;9.70;99.90;;;;;;5094543;28;20124;-66
2022/05/30 05:40:15;;;;;;;7.10;3.60;;;9.70;99.90;;;;;;5103506;28;20040;-67
2022/05/30 05:42:40;;;;;;;8.68;3.58;;;9.70;99.90;;;;;;5090069;28;20055;-67
2022/05/30 05:45:07;;;;;;;6.50;3.15;;;9.80;99.90;;;;;;5105275;28;20036;-67
2022/05/30 05:47:34;;;;;;;11.20;3.65;;;9.80;99.90;;;;;;5095302;28;20112;-66
2022/05/30 05:50:00;;;;;;;8.75;2.83;;;9.90;99.90;;;;;;5094260;28;20097;-68
2022/05/30 05:52:28;;;;;;;8.05;3.20;;;9.80;99.90;;;;;;5093982;28;20126;-67
2022/05/30 05:54:55;;;;;;;5.68;2.90;;;9.90;99.90;;;;;;5094002;28;20297;-66
2022/05/30 05:57:22;;;;;;;7.63;3.70;;;9.90;99.90;;;;;;5089267;28;20052;-66
2022/05/30 05:59:47;;;;;;;7.18;3.15;;;9.90;99.90;;;;;;5097052;28;20081;-67
2022/05/30 06:02:13;;;;;;;8.48;3.42;;;9.90;99.90;;;;;;5090299;28;20623;-67
2022/05/30 06:04:39;;;;;;;7.03;3.20;;;9.90;99.90;;;;;;5090085;28;20036;-68
2022/05/30 06:07:06;;;;;;;7.50;3.38;;;10.00;99.90;;;;;;5093355;28;20039;-68
2022/05/30 06:09:32;;;;;;;7.43;3.25;;;10.00;99.90;;;;;;5090365;28;20040;-68
2022/05/30 06:11:58;;;;;;;6.72;3.45;;;10.00;99.90;;;;;;5086397;28;20093;-68
2022/05/30 06:14:23;;;;;;;8.52;3.38;;;10.00;99.90;;;;;;5094474;28;20047;-67
2022/05/30 06:16:49;;;;;;;8.38;3.30;;;10.00;99.90;;;;;;5082744;28;20035;-66
2022/05/30 06:19:15;;;;;;;8.52;3.42;;;10.00;99.90;;;;;;5089487;28;20044;-66
2022/05/30 06:21:41;;;;;;;7.30;3.03;;;10.10;99.90;;;;;;5090642;28;20040;-67
2022/05/30 06:24:08;;;;;;;9.52;3.72;;;10.10;99.90;;;;;;5088453;28;20051;-68
2022/05/30 06:26:34;;;;;;;8.77;3.78;;;10.10;99.90;;;;;;5089604;28;20040;-67
2022/05/30 06:29:00;;;;;;;7.35;3.40;;;10.20;99.90;;;;;;5085986;28;20036;-67
2022/05/30 06:31:29;;;;;;;8.98;3.35;;;10.20;99.90;;;;;;5090434;28;20071;-68
2022/05/30 06:33:58;;;;;;;9.45;3.55;;;10.40;99.90;;;;;;5092880;28;20532;-68
2022/05/30 06:36:24;;;;;;;8.60;3.22;;;10.50;99.90;;;;;;5086969;28;20062;-67
2022/05/30 06:38:51;;;;;;;7.83;3.60;;;10.60;99.90;;;;;;5109668;28;20051;-67
2022/05/30 06:41:20;;;;;;;7.60;3.15;;;10.80;99.90;;;;;;5109918;28;20281;-68
2022/05/30 06:43:46;;;;;;;7.93;3.20;;;10.90;99.90;;;;;;5101145;28;20059;-68
2022/05/30 06:46:13;;;;;;;10.55;3.45;;;11.10;99.90;;;;;;5109407;28;20506;-67
2022/05/30 06:48:40;;;;;;;4.63;2.75;;;11.20;99.90;;;;;;5110165;28;20067;-67
2022/05/30 06:51:10;;;;;;;7.63;2.90;;;11.20;99.90;;;;;;5109910;28;20078;-67
2022/05/30 06:53:36;;;;;;;8.90;2.85;;;11.40;99.90;;;;;;5101179;28;20046;-67
2022/05/30 06:56:10;;;;;;;6.75;2.63;;;11.50;99.90;;;;;;5102970;28;20086;-68
2022/05/30 06:58:35;;;;;;;5.55;3.10;;;11.70;99.90;;;;;;5093688;28;20130;-67
2022/05/30 07:01:02;;;;;;;7.75;2.70;;;11.80;99.90;;;;;;5104146;28;20036;-67
2022/05/30 07:03:28;;;;;;;7.53;2.78;;;11.80;99.90;;;;;;5101749;28;20123;-67
2022/05/30 07:05:54;;;;;;;5.22;2.70;;;11.90;99.90;;;;;;5089535;28;20043;-66
2022/05/30 07:08:19;;;;;;;9.77;3.25;;;11.80;99.90;;;;;;5082240;28;20040;-70
2022/05/30 07:10:45;;;;;;;7.95;2.80;;;11.90;99.90;;;;;;5103796;28;20527;-67
2022/05/30 07:13:12;;;;;;;7.25;2.80;;;11.90;99.90;;;;;;5100127;27;20079;-66
2022/05/30 07:15:38;;;;;;;7.00;2.63;;;11.90;99.90;;;;;;5093883;28;20086;-66
2022/05/30 07:18:13;;;;;;;5.90;2.83;;;11.90;99.90;;;;;;5089825;28;20040;-66
2022/05/30 07:20:40;;;;;;;5.55;2.60;;;11.90;99.90;;;;;;5088063;28;20046;-66
2022/05/30 07:23:06;;;;;;;8.00;2.72;;;11.90;99.90;;;;;;5097084;28;20039;-66
2022/05/30 07:25:36;;;;;;;5.53;2.65;;;11.90;99.90;;;;;;5090623;28;20055;-66
2022/05/30 07:28:03;;;;;;;8.70;2.58;;;12.00;99.90;;;;;;5088633;28;20051;-66
2022/05/30 07:30:29;;;;;;;7.90;2.15;;;12.10;99.90;;;;;;5091151;28;20763;-65
2022/05/30 07:32:56;;;;;;;4.20;1.83;;;12.20;99.90;;;;;;5086713;28;20044;-68
2022/05/30 07:35:22;;;;;;;6.05;2.40;;;12.30;99.90;;;;;;5091670;28;20051;-67
2022/05/30 07:37:50;;;;;;;6.78;2.15;;;12.50;99.90;;;;;;5106216;28;20035;-65
2022/05/30 07:40:16;;;;;;;4.93;2.15;;;12.70;99.90;;;;;;5092874;28;20090;-65
2022/05/30 07:42:42;;;;;;;4.57;1.75;;;12.70;99.90;;;;;;5092654;28;20031;-65
2022/05/30 07:45:11;;;;;;;5.45;1.90;;;12.90;99.90;;;;;;5093584;28;21471;-67
2022/05/30 07:47:38;;;;;;;4.07;1.83;;;13.00;99.90;;;;;;5102135;28;20452;-66
2022/05/30 07:50:04;;;;;;;3.22;1.85;;;13.00;99.90;;;;;;5108858;27;20059;-66
2022/05/30 07:52:30;;;;;;;5.22;1.75;;;13.00;99.90;;;;;;5091281;28;20488;-67
2022/05/30 07:54:56;;;;;;;4.97;1.63;;;13.10;99.90;;;;;;5090236;28;20038;-66
2022/05/30 07:57:50;;;;;;;3.53;1.17;;;13.10;99.90;;;;;;5093518;28;20083;-67
2022/05/30 08:00:10;;;;;;;3.65;1.17;;;13.10;99.90;;;;;;5097094;28;20479;-67
2022/05/30 08:02:37;;;;;;;2.90;1.10;;;12.90;99.90;;;;;;5085798;28;20156;-68
2022/05/30 08:05:05;;;;;;;5.30;0.90;;;12.80;99.90;;;;;;5092856;28;20048;-68
2022/05/30 08:07:30;;;;;;;1.95;0.90;;;12.70;99.90;;;;;;5086979;28;20044;-69
2022/05/30 08:09:58;;;;;;;2.47;0.70;;;12.60;99.90;;;;;;5085171;28;20113;-66
2022/05/30 08:12:23;;;;;;;3.33;0.95;;;12.60;99.90;;;;;;5086108;28;20032;-69
2022/05/30 08:14:49;;;;;;;3.00;0.80;;;12.50;99.90;;;;;;5087674;28;20085;-68
2022/05/30 08:17:15;;;;;;;2.58;1.00;;;12.50;99.90;;;;;;5087063;28;20040;-69
2022/05/30 08:19:40;;;;;;;3.50;1.00;;;12.50;99.90;;;;;;5090761;28;20048;-69
2022/05/30 08:22:10;;;;;;;4.35;0.80;;;12.50;99.90;;;;;;5092605;28;20050;-70
2022/05/30 08:24:38;;;;;;;1.92;0.82;;;12.60;99.90;;;;;;5088794;28;20713;-69
2022/05/30 08:27:04;;;;;;;4.50;1.17;;;12.70;99.90;;;;;;5089849;28;20116;-70
2022/05/30 08:29:31;;;;;;;4.45;1.00;;;12.80;99.90;;;;;;5088443;28;20047;-68
2022/05/30 08:31:57;;;;;;;4.10;1.10;;;12.90;99.90;;;;;;5088038;28;20078;-66
2022/05/30 08:34:22;;;;;;;3.75;1.17;;;13.00;99.90;;;;;;5098227;28;20039;-64
2022/05/30 08:36:48;;;;;;;4.75;1.25;;;13.10;99.90;;;;;;5088809;28;20047;-71
2022/05/30 08:42:00;;;;;;;3.08;1.00;;;13.30;99.90;;;;;;5086645;28;20043;-67
2022/05/30 08:44:30;;;;;;;2.95;0.90;;;13.50;99.90;;;;;;5087500;28;20832;-74
2022/05/30 08:47:06;;;;;;;5.57;1.20;;;13.60;99.90;;;;;;5092214;28;20033;-68
2022/05/30 08:49:42;;;;;;;2.60;1.00;;;13.70;99.90;;;;;;5095994;28;20051;-68
2022/05/30 08:52:25;;;;;;;1.88;0.60;;;13.80;99.90;;;;;;5086882;28;20093;-68
2022/05/30 08:54:58;;;;;;;3.83;0.80;;;13.70;99.90;;;;;;5090737;28;20119;-68
2022/05/30 08:57:42;;;;;;;17.20;1.52;;;13.70;99.90;;;;;;5093067;28;20044;-66
2022/05/30 09:00:14;;;;;;;1.50;0.90;;;13.60;99.90;;;;;;5096885;28;20067;-66
2022/05/30 09:02:55;;;;;;;1.35;0.68;;;13.60;99.90;;;;;;5089542;28;20528;-65
2022/05/30 09:05:27;;;;;;;4.05;0.70;;;13.60;99.90;;;;;;5101229;28;20085;-64
2022/05/30 09:07:56;;;;;;;2.80;0.70;;;13.50;99.90;;;;;;5095291;28;20079;-64
2022/05/30 09:10:35;;;;;;;2.40;0.70;;;13.50;99.90;;;;;;5090999;28;20036;-65
2022/05/30 09:13:14;;;;;;;2.38;0.90;;;13.60;99.90;;;;;;5097026;28;20040;-65
2022/05/30 09:15:49;;;;;;;2.30;0.63;;;13.60;99.90;;;;;;5102716;28;20535;-65
2022/05/30 09:18:30;;;;;;;1.58;0.60;;;13.70;99.90;;;;;;5093014;28;20075;-64
2022/05/30 09:20:56;;;;;;;5.82;0.90;;;13.90;99.90;;;;;;5099802;28;20040;-66
2022/05/30 09:23:24;;;;;;;49.90;33.33;;;14.00;99.90;;;;;;5095084;28;20089;-66
2022/05/30 09:26:07;;;;;;;177.27;140.85;;;14.10;99.90;;;;;;5087751;28;20052;-65
2022/05/30 09:28:40;;;;;;;9.65;7.93;;;14.20;99.90;;;;;;5090874;28;20036;-67
2022/05/30 09:31:41;;;;;;;1.88;1.00;;;14.30;99.90;;;;;;5097991;28;20039;-69
2022/05/30 09:34:31;;;;;;;3.55;0.85;;;14.50;99.90;;;;;;5106780;28;20105;-68
2022/05/30 09:36:57;;;;;;;4.07;0.90;;;14.80;99.90;;;;;;5080275;28;20041;-68
2022/05/30 09:39:23;;;;;;;2.05;0.82;;;15.00;99.90;;;;;;5089831;28;20097;-68
2022/05/30 09:42:01;;;;;;;3.05;0.80;;;15.10;99.90;;;;;;5089003;28;20047;-69
2022/05/30 09:44:39;;;;;;;32.00;27.42;;;15.00;99.90;;;;;;5096168;28;20432;-69
2022/05/30 09:47:14;;;;;;;5.68;3.97;;;14.90;99.90;;;;;;5087966;28;20115;-69
2022/05/30 09:49:43;;;;;;;4.90;1.20;;;14.80;99.90;;;;;;5089603;28;20078;-70
2022/05/30 09:52:36;;;;;;;3.55;1.10;;;14.70;99.90;;;;;;5097873;28;20126;-68
2022/05/30 09:55:30;;;;;;;5.53;1.02;;;14.70;99.90;;;;;;5087752;28;20059;-68
2022/05/30 09:57:57;;;;;;;3.22;1.27;;;14.70;99.90;;;;;;5093904;28;20096;-68
2022/05/30 10:00:53;;;;;;;1.13;0.73;;;14.60;99.90;;;;;;5089086;28;20048;-67
2022/05/30 10:03:31;;;;;;;1.73;0.80;;;14.60;99.90;;;;;;5094923;28;20499;-67
2022/05/30 10:06:25;;;;;;;1.27;0.60;;;14.40;99.90;;;;;;5091072;28;20054;-66
2022/05/30 10:09:12;;;;;;;1.73;0.50;;;14.20;99.90;;;;;;5083768;28;20052;-71
2022/05/30 10:11:38;;;;;;;2.08;0.70;;;14.00;99.90;;;;;;5099036;28;20046;-68
2022/05/30 10:14:22;;;;;;;1.83;0.82;;;13.80;99.90;;;;;;5088086;28;20158;-70
2022/05/30 10:16:48;;;;;;;1.70;0.60;;;13.50;99.90;;;;;;5086169;28;20039;-66
2022/05/30 10:19:30;;;;;;;4.22;0.90;;;13.30;99.90;;;;;;5089350;28;20044;-66
2022/05/30 10:28:43;;;;;;;1.75;0.70;;;13.40;99.90;;;;;;5077493;28;20052;-67
2022/05/30 10:31:28;;;;;;;2.42;0.73;;;13.40;99.90;;;;;;5089825;28;20387;-67
2022/05/30 10:34:20;;;;;;;1.17;0.60;;;13.40;99.90;;;;;;5090679;28;20693;-68
2022/05/30 10:37:14;;;;;;;1.52;0.60;;;13.50;99.90;;;;;;5100503;28;20570;-68
2022/05/30 10:39:45;;;;;;;2.58;0.75;;;13.60;99.90;;;;;;5090596;28;20039;-68
2022/05/30 10:42:18;;;;;;;2.03;0.60;;;13.60;99.90;;;;;;5088378;28;20043;-68
2022/05/30 10:44:55;;;;;;;1.30;0.60;;;13.60;99.90;;;;;;5087748;28;20048;-67
2022/05/30 10:47:24;;;;;;;3.10;0.73;;;13.60;99.90;;;;;;5103445;28;20097;-67
2022/05/30 10:49:58;;;;;;;1.77;0.60;;;13.70;99.90;;;;;;5090425;28;20063;-70
2022/05/30 10:52:32;;;;;;;1.58;0.45;;;13.80;99.90;;;;;;5090745;28;20229;-69
2022/05/30 10:55:04;;;;;;;3.25;0.57;;;13.80;99.90;;;;;;5095302;28;20047;-66
2022/05/30 10:57:51;;;;;;;1.17;0.50;;;13.90;99.90;;;;;;5093380;28;20070;-67
2022/05/30 11:00:23;;;;;;;1.83;0.60;;;14.10;99.90;;;;;;5086012;28;20040;-69
2022/05/30 11:03:14;;;;;;;0.85;0.40;;;14.20;99.90;;;;;;5098052;28;20472;-69
2022/05/30 11:05:55;;;;;;;2.38;0.50;;;14.30;99.90;;;;;;5086985;28;20491;-69
2022/05/30 11:08:26;;;;;;;1.90;0.60;;;14.40;99.90;;;;;;5084160;28;20364;-69
2022/05/30 11:11:00;;;;;;;1.88;0.57;;;14.50;99.90;;;;;;5088641;28;20051;-68
2022/05/30 11:13:40;;;;;;;1.05;0.40;;;14.70;99.90;;;;;;5090665;28;20413;-68
2022/05/30 11:16:43;;;;;;;2.15;0.40;;;14.80;99.90;;;;;;5088985;28;20040;-70
2022/05/30 11:19:28;;;;;;;0.40;0.30;;;15.10;99.90;;;;;;5085462;28;20044;-71
2022/05/30 11:22:03;;;;;;;0.35;0.35;;;15.20;99.80;;;;;;5083876;28;20502;-76
2022/05/30 11:24:31;;;;;;;0.73;0.30;;;15.30;97.60;;;;;;5095543;28;20052;-71
2022/05/30 11:27:25;;;;;;;1.02;0.30;;;15.40;98.30;;;;;;5089714;28;20438;-70
2022/05/30 11:30:36;;;;;;;2.13;0.50;;;15.50;97.30;;;;;;5081958;28;20133;-71
2022/05/30 11:33:28;;;;;;;1.17;0.40;;;15.60;98.20;;;;;;5060667;28;20066;-70
2022/05/30 11:36:30;;;;;;;1.02;0.57;;;15.80;99.60;;;;;;5093625;28;20096;-71
2022/05/30 11:39:14;;;;;;;2.70;0.60;;;16.10;99.30;;;;;;5090371;28;20052;-70
2022/05/30 11:41:55;;;;;;;2.08;0.60;;;16.40;98.90;;;;;;5079994;28;20089;-71
2022/05/30 11:44:23;;;;;;;1.58;0.50;;;16.60;99.90;;;;;;5089598;28;20693;-71
2022/05/30 11:46:57;;;;;;;2.00;0.65;;;16.90;98.40;;;;;;5088590;28;20058;-71
2022/05/30 11:49:33;;;;;;;0.70;0.40;;;17.10;98.40;;;;;;5093087;28;20039;-72
2022/05/30 11:52:07;;;;;;;1.55;0.60;;;17.10;92.70;;;;;;5078762;28;20127;-70
2022/05/30 11:54:55;;;;;;;1.10;0.50;;;17.00;91.10;;;;;;5099433;28;20083;-70
2022/05/30 11:57:42;;;;;;;3.38;0.60;;;16.80;90.30;;;;;;5086847;28;20475;-71
2022/05/30 12:00:11;;;;;;;;;;;16.40;93.50;;;;;;5090364;28;20036;-72
2022/05/30 12:02:58;;;;;;;1.95;0.70;;;16.20;95.80;;;;;;5080587;28;20318;-71
2022/05/30 12:05:32;;;;;;;0.95;0.65;;;16.00;97.80;;;;;;5092843;28;20494;-70
2022/05/30 12:08:27;;;;;;;2.33;0.70;;;15.80;98.50;;;;;;5081923;28;20097;-69
2022/05/30 12:11:04;;;;;;;2.95;0.68;;;15.60;98.30;;;;;;5088259;28;20047;-70
2022/05/30 12:13:48;;;;;;;2.33;0.77;;;15.40;99.20;;;;;;5096397;28;20093;-69
2022/05/30 12:17:00;;;;;;;1.70;0.60;;;15.30;98.90;;;;;;5098322;28;20446;-68
2022/05/30 12:25:36;;;;;;;1.63;0.90;;;15.00;99.90;;;;;;5094073;28;19951;-69
2022/05/30 12:28:03;;;;;;;2.10;0.90;;;14.90;99.90;;;;;;5102054;28;20538;-69
2022/05/30 12:30:35;;;;;;;3.60;1.15;;;14.80;99.90;;;;;;5085825;28;20051;-70
2022/05/30 12:33:21;;;;;;;1.65;0.88;;;14.80;99.90;;;;;;5093571;28;20623;-68
2022/05/30 12:35:47;;;;;;;1.67;0.90;;;14.70;99.90;;;;;;5098754;28;20058;-67
2022/05/30 12:38:15;;;;;;;1.92;1.00;;;14.60;99.90;;;;;;5099815;28;20131;-67
2022/05/30 12:40:53;;;;;;;2.95;1.00;;;14.50;99.90;;;;;;5102318;28;20525;-66
2022/05/30 12:43:27;;;;;;;5.43;1.10;;;14.40;99.90;;;;;;5100047;28;20505;-66
2022/05/30 12:45:56;;;;;;;3.28;1.08;;;14.40;99.90;;;;;;5104067;28;20040;-67
2022/05/30 12:49:05;;;;;;;5.45;1.00;;;14.30;99.90;;;;;;5104924;28;20457;-67
2022/05/30 12:51:37;;;;;;;2.10;0.80;;;14.30;99.90;;;;;;5028422;28;20061;-69
2022/05/30 12:54:05;;;;;;;3.40;0.80;;;14.20;99.90;;;;;;5026127;28;20091;-68
2022/05/30 12:56:37;;;;;;;2.83;0.98;;;14.20;99.90;;;;;;5064294;28;21284;-68
2022/05/30 12:59:02;;;;;;;1.73;0.82;;;14.20;99.90;;;;;;5091925;28;20048;-69
2022/05/30 13:01:49;;;;;;;1.00;0.70;;;14.20;99.90;;;;;;5084603;28;20037;-69
2022/05/30 13:04:27;;;;;;;2.40;0.70;;;14.30;99.90;;;;;;5075511;28;20058;-68
2022/05/30 13:07:09;;;;;;;3.70;0.80;;;14.40;99.90;;;;;;5090814;28;20055;-68
2022/05/30 13:09:37;;;;;;;4.20;1.10;;;14.40;99.90;;;;;;5084562;28;20094;-68
2022/05/30 13:12:09;;;;;;;3.22;1.02;;;14.40;99.90;;;;;;5091388;28;20122;-68
2022/05/30 13:14:39;;;;;;;4.20;1.05;;;14.40;99.90;;;;;;5090372;28;20267;-68
2022/05/30 13:17:22;;;;;;;4.07;0.90;;;14.40;99.90;;;;;;5089735;28;20055;-69
2022/05/30 13:19:53;;;;;;;1.42;0.88;;;14.30;99.90;;;;;;5085843;28;20055;-69
2022/05/30 13:22:36;;;;;;;3.40;0.95;;;14.40;99.90;;;;;;5096258;28;20048;-69
2022/05/30 13:25:04;;;;;;;3.10;0.98;;;14.50;99.90;;;;;;5095573;28;20044;-69
2022/05/30 13:27:31;;;;;;;3.40;1.00;;;14.50;99.90;;;;;;5094072;28;20046;-70
2022/05/30 13:30:06;;;;;;;2.40;1.10;;;14.50;99.90;;;;;;5091111;28;20044;-68
2022/05/30 13:32:33;;;;;;;4.60;1.00;;;14.60;99.90;;;;;;5097611;28;20040;-69
2022/05/30 13:35:03;;;;;;;2.75;1.00;;;14.50;99.90;;;;;;5102647;28;20038;-69
2022/05/30 13:37:32;;;;;;;1.70;1.02;;;14.50;99.90;;;;;;5105282;28;20051;-69